sensor_id;sensor_type;location;lat;lon;timestamp;temperature;humidity
49829;DHT22;35723;51.194;5.112;2022-07-12T00:01:31;19.50;99.90
49829;DHT22;35723;51.194;5.112;2022-07-12T00:03:56;19.50;99.90
49829;DHT22;35723;51.194;5.112;2022-07-12T00:06:22;19.50;99.90
49829;DHT22;35723;51.194;5.112;2022-07-12T00:08:48;19.60;99.90
49829;DHT22;35723;51.194;5.112;2022-07-12T00:11:13;19.50;99.90
49829;DHT22;35723;51.194;5.112;2022-07-12T00:13:39;19.40;99.90
49829;DHT22;35723;51.194;5.112;2022-07-12T00:16:04;19.40;99.90
49829;DHT22;35723;51.194;5.112;2022-07-12T00:18:30;19.40;99.90
49829;DHT22;35723;51.194;5.112;2022-07-12T00:20:56;19.50;99.90
49829;DHT22;35723;51.194;5.112;2022-07-12T00:23:21;19.40;99.90
49829;DHT22;35723;51.194;5.112;2022-07-12T00:25:47;19.30;99.90
49829;DHT22;35723;51.194;5.112;2022-07-12T00:28:13;19.20;99.90
49829;DHT22;35723;51.194;5.112;2022-07-12T00:30:38;19.10;99.90
49829;DHT22;35723;51.194;5.112;2022-07-12T00:33:04;19.20;99.90
49829;DHT22;35723;51.194;5.112;2022-07-12T00:35:30;19.10;99.90
49829;DHT22;35723;51.194;5.112;2022-07-12T00:37:55;19.10;99.90
49829;DHT22;35723;51.194;5.112;2022-07-12T00:40:21;19.20;99.90
49829;DHT22;35723;51.194;5.112;2022-07-12T00:42:47;19.10;99.90
49829;DHT22;35723;51.194;5.112;2022-07-12T00:45:13;19.00;99.90
49829;DHT22;35723;51.194;5.112;2022-07-12T00:47:44;18.90;99.90
49829;DHT22;35723;51.194;5.112;2022-07-12T00:50:14;18.90;99.90
49829;DHT22;35723;51.194;5.112;2022-07-12T00:52:41;18.90;99.90
49829;DHT22;35723;51.194;5.112;2022-07-12T00:55:08;18.90;99.90
49829;DHT22;35723;51.194;5.112;2022-07-12T00:57:35;18.90;99.90
49829;DHT22;35723;51.194;5.112;2022-07-12T01:00:03;18.90;99.90
49829;DHT22;35723;51.194;5.112;2022-07-12T01:02:29;18.80;99.90
49829;DHT22;35723;51.194;5.112;2022-07-12T01:04:55;18.80;99.90
49829;DHT22;35723;51.194;5.112;2022-07-12T01:07:21;18.70;99.90
49829;DHT22;35723;51.194;5.112;2022-07-12T01:09:49;18.80;99.90
49829;DHT22;35723;51.194;5.112;2022-07-12T01:12:15;18.70;99.90
49829;DHT22;35723;51.194;5.112;2022-07-12T01:14:40;18.70;99.90
49829;DHT22;35723;51.194;5.112;2022-07-12T01:17:07;18.60;99.90
49829;DHT22;35723;51.194;5.112;2022-07-12T01:19:34;18.70;99.90
49829;DHT22;35723;51.194;5.112;2022-07-12T01:22:02;18.70;99.90
49829;DHT22;35723;51.194;5.112;2022-07-12T01:24:28;18.50;99.90
49829;DHT22;35723;51.194;5.112;2022-07-12T01:26:54;18.60;99.90
49829;DHT22;35723;51.194;5.112;2022-07-12T01:29:21;18.60;99.90
49829;DHT22;35723;51.194;5.112;2022-07-12T01:31:47;18.60;99.90
49829;DHT22;35723;51.194;5.112;2022-07-12T01:34:13;18.40;99.90
49829;DHT22;35723;51.194;5.112;2022-07-12T01:36:39;18.30;99.90
49829;DHT22;35723;51.194;5.112;2022-07-12T01:39:05;18.30;99.90
49829;DHT22;35723;51.194;5.112;2022-07-12T01:41:32;18.40;99.90
49829;DHT22;35723;51.194;5.112;2022-07-12T01:43:58;18.40;99.90
49829;DHT22;35723;51.194;5.112;2022-07-12T01:46:24;18.40;99.90
49829;DHT22;35723;51.194;5.112;2022-07-12T01:48:50;18.40;99.90
49829;DHT22;35723;51.194;5.112;2022-07-12T01:51:15;18.40;99.90
49829;DHT22;35723;51.194;5.112;2022-07-12T01:53:41;18.40;99.90
49829;DHT22;35723;51.194;5.112;2022-07-12T01:56:07;18.20;99.90
49829;DHT22;35723;51.194;5.112;2022-07-12T01:58:35;18.20;99.90
49829;DHT22;35723;51.194;5.112;2022-07-12T02:01:00;18.20;99.90
49829;DHT22;35723;51.194;5.112;2022-07-12T02:03:26;18.20;99.90
49829;DHT22;35723;51.194;5.112;2022-07-12T02:05:52;18.10;99.90
49829;DHT22;35723;51.194;5.112;2022-07-12T02:08:17;18.10;99.90
49829;DHT22;35723;51.194;5.112;2022-07-12T02:10:43;18.00;99.90
49829;DHT22;35723;51.194;5.112;2022-07-12T02:13:09;17.90;99.90
49829;DHT22;35723;51.194;5.112;2022-07-12T02:15:35;17.90;99.90
49829;DHT22;35723;51.194;5.112;2022-07-12T02:18:00;17.80;99.90
49829;DHT22;35723;51.194;5.112;2022-07-12T02:20:26;17.80;99.90
49829;DHT22;35723;51.194;5.112;2022-07-12T02:22:51;17.90;99.90
49829;DHT22;35723;51.194;5.112;2022-07-12T02:25:17;17.90;99.90
49829;DHT22;35723;51.194;5.112;2022-07-12T02:27:43;17.80;99.90
49829;DHT22;35723;51.194;5.112;2022-07-12T02:30:10;17.70;99.90
49829;DHT22;35723;51.194;5.112;2022-07-12T02:32:37;17.70;99.90
49829;DHT22;35723;51.194;5.112;2022-07-12T02:35:04;17.70;99.90
49829;DHT22;35723;51.194;5.112;2022-07-12T02:37:30;17.70;99.90
49829;DHT22;35723;51.194;5.112;2022-07-12T02:39:55;17.70;99.90
49829;DHT22;35723;51.194;5.112;2022-07-12T02:42:41;17.70;99.90
49829;DHT22;35723;51.194;5.112;2022-07-12T02:45:09;17.70;99.90
49829;DHT22;35723;51.194;5.112;2022-07-12T02:47:37;17.70;99.90
49829;DHT22;35723;51.194;5.112;2022-07-12T02:50:04;17.70;99.90
49829;DHT22;35723;51.194;5.112;2022-07-12T02:52:29;17.60;99.90
49829;DHT22;35723;51.194;5.112;2022-07-12T02:54:55;17.60;99.90
49829;DHT22;35723;51.194;5.112;2022-07-12T02:57:20;17.50;99.90
49829;DHT22;35723;51.194;5.112;2022-07-12T02:59:46;17.50;99.90
49829;DHT22;35723;51.194;5.112;2022-07-12T03:02:12;17.50;99.90
49829;DHT22;35723;51.194;5.112;2022-07-12T03:04:37;17.40;99.90
49829;DHT22;35723;51.194;5.112;2022-07-12T03:07:03;17.40;99.90
49829;DHT22;35723;51.194;5.112;2022-07-12T03:09:29;17.40;99.90
49829;DHT22;35723;51.194;5.112;2022-07-12T03:11:55;17.30;99.90
49829;DHT22;35723;51.194;5.112;2022-07-12T03:14:21;17.30;99.90
49829;DHT22;35723;51.194;5.112;2022-07-12T03:16:47;17.30;99.90
49829;DHT22;35723;51.194;5.112;2022-07-12T03:19:12;17.30;99.90
49829;DHT22;35723;51.194;5.112;2022-07-12T03:21:38;17.30;99.90
49829;DHT22;35723;51.194;5.112;2022-07-12T03:24:03;17.30;99.90
49829;DHT22;35723;51.194;5.112;2022-07-12T03:26:29;17.30;99.90
49829;DHT22;35723;51.194;5.112;2022-07-12T03:28:55;17.30;99.90
49829;DHT22;35723;51.194;5.112;2022-07-12T03:31:20;17.30;99.90
49829;DHT22;35723;51.194;5.112;2022-07-12T03:33:46;17.30;99.90
49829;DHT22;35723;51.194;5.112;2022-07-12T03:36:11;17.20;99.90
49829;DHT22;35723;51.194;5.112;2022-07-12T03:38:38;17.10;99.90
49829;DHT22;35723;51.194;5.112;2022-07-12T03:41:05;17.10;99.90
49829;DHT22;35723;51.194;5.112;2022-07-12T03:43:30;17.10;99.90
49829;DHT22;35723;51.194;5.112;2022-07-12T03:45:56;17.20;99.90
49829;DHT22;35723;51.194;5.112;2022-07-12T03:48:22;17.10;99.90
49829;DHT22;35723;51.194;5.112;2022-07-12T03:50:47;17.10;99.90
49829;DHT22;35723;51.194;5.112;2022-07-12T03:53:13;17.10;99.90
49829;DHT22;35723;51.194;5.112;2022-07-12T03:55:39;17.10;99.90
49829;DHT22;35723;51.194;5.112;2022-07-12T03:58:04;17.00;99.90
49829;DHT22;35723;51.194;5.112;2022-07-12T04:00:30;16.90;99.90
49829;DHT22;35723;51.194;5.112;2022-07-12T04:02:56;16.90;99.90
49829;DHT22;35723;51.194;5.112;2022-07-12T04:05:22;16.90;99.90
49829;DHT22;35723;51.194;5.112;2022-07-12T04:07:51;17.00;99.90
49829;DHT22;35723;51.194;5.112;2022-07-12T04:10:17;16.90;99.90
49829;DHT22;35723;51.194;5.112;2022-07-12T04:12:43;16.90;99.90
49829;DHT22;35723;51.194;5.112;2022-07-12T04:15:09;16.90;99.90
49829;DHT22;35723;51.194;5.112;2022-07-12T04:17:35;16.80;99.90
49829;DHT22;35723;51.194;5.112;2022-07-12T04:20:00;16.90;99.90
49829;DHT22;35723;51.194;5.112;2022-07-12T04:22:26;16.80;99.90
49829;DHT22;35723;51.194;5.112;2022-07-12T04:24:51;16.70;99.90
49829;DHT22;35723;51.194;5.112;2022-07-12T04:27:17;16.70;99.90
49829;DHT22;35723;51.194;5.112;2022-07-12T04:29:43;16.60;99.90
49829;DHT22;35723;51.194;5.112;2022-07-12T04:32:08;16.70;99.90
49829;DHT22;35723;51.194;5.112;2022-07-12T04:34:34;16.70;99.90
49829;DHT22;35723;51.194;5.112;2022-07-12T04:37:00;16.70;99.90
49829;DHT22;35723;51.194;5.112;2022-07-12T04:39:25;16.80;99.90
49829;DHT22;35723;51.194;5.112;2022-07-12T04:41:51;16.80;99.90
49829;DHT22;35723;51.194;5.112;2022-07-12T04:44:17;16.90;99.90
49829;DHT22;35723;51.194;5.112;2022-07-12T04:46:42;16.80;99.90
49829;DHT22;35723;51.194;5.112;2022-07-12T04:49:08;16.90;99.90
49829;DHT22;35723;51.194;5.112;2022-07-12T04:51:34;16.90;99.90
49829;DHT22;35723;51.194;5.112;2022-07-12T04:53:59;16.90;99.90
49829;DHT22;35723;51.194;5.112;2022-07-12T04:56:25;17.10;99.90
49829;DHT22;35723;51.194;5.112;2022-07-12T04:58:50;17.20;99.90
49829;DHT22;35723;51.194;5.112;2022-07-12T05:01:16;17.40;99.90
49829;DHT22;35723;51.194;5.112;2022-07-12T05:03:42;17.50;99.90
49829;DHT22;35723;51.194;5.112;2022-07-12T05:06:08;17.40;99.90
49829;DHT22;35723;51.194;5.112;2022-07-12T05:08:33;17.40;99.90
49829;DHT22;35723;51.194;5.112;2022-07-12T05:10:59;17.50;99.90
49829;DHT22;35723;51.194;5.112;2022-07-12T05:13:25;17.50;99.90
49829;DHT22;35723;51.194;5.112;2022-07-12T05:15:51;17.60;99.90
49829;DHT22;35723;51.194;5.112;2022-07-12T05:18:16;17.70;99.90
49829;DHT22;35723;51.194;5.112;2022-07-12T05:20:42;18.00;99.90
49829;DHT22;35723;51.194;5.112;2022-07-12T05:23:08;18.10;99.90
49829;DHT22;35723;51.194;5.112;2022-07-12T05:25:33;18.20;99.90
49829;DHT22;35723;51.194;5.112;2022-07-12T05:27:59;18.30;99.90
49829;DHT22;35723;51.194;5.112;2022-07-12T05:30:24;18.60;99.90
49829;DHT22;35723;51.194;5.112;2022-07-12T05:32:51;18.60;99.90
49829;DHT22;35723;51.194;5.112;2022-07-12T05:35:17;18.50;99.90
49829;DHT22;35723;51.194;5.112;2022-07-12T05:37:42;18.70;99.90
49829;DHT22;35723;51.194;5.112;2022-07-12T05:40:08;18.40;99.90
49829;DHT22;35723;51.194;5.112;2022-07-12T05:42:34;18.30;99.90
49829;DHT22;35723;51.194;5.112;2022-07-12T05:45:00;18.40;99.90
49829;DHT22;35723;51.194;5.112;2022-07-12T05:47:26;18.60;99.90
49829;DHT22;35723;51.194;5.112;2022-07-12T05:49:51;18.60;99.90
49829;DHT22;35723;51.194;5.112;2022-07-12T05:52:17;18.70;99.90
49829;DHT22;35723;51.194;5.112;2022-07-12T05:55:02;19.00;99.90
49829;DHT22;35723;51.194;5.112;2022-07-12T05:57:27;18.90;99.90
49829;DHT22;35723;51.194;5.112;2022-07-12T05:59:53;18.70;99.90
49829;DHT22;35723;51.194;5.112;2022-07-12T06:02:19;18.60;99.90
49829;DHT22;35723;51.194;5.112;2022-07-12T06:04:44;18.70;99.90
49829;DHT22;35723;51.194;5.112;2022-07-12T06:07:10;18.90;99.90
49829;DHT22;35723;51.194;5.112;2022-07-12T06:09:36;19.00;99.90
49829;DHT22;35723;51.194;5.112;2022-07-12T06:12:01;19.10;99.90
49829;DHT22;35723;51.194;5.112;2022-07-12T06:14:27;19.10;99.90
49829;DHT22;35723;51.194;5.112;2022-07-12T06:16:53;19.20;99.90
49829;DHT22;35723;51.194;5.112;2022-07-12T06:19:19;19.60;99.90
49829;DHT22;35723;51.194;5.112;2022-07-12T06:21:44;19.60;99.90
49829;DHT22;35723;51.194;5.112;2022-07-12T06:24:10;19.60;99.90
49829;DHT22;35723;51.194;5.112;2022-07-12T06:26:35;19.60;99.90
49829;DHT22;35723;51.194;5.112;2022-07-12T06:29:01;19.90;99.90
49829;DHT22;35723;51.194;5.112;2022-07-12T06:31:27;19.90;99.90
49829;DHT22;35723;51.194;5.112;2022-07-12T06:33:53;19.70;99.90
49829;DHT22;35723;51.194;5.112;2022-07-12T06:36:19;19.50;99.90
49829;DHT22;35723;51.194;5.112;2022-07-12T06:38:44;19.30;99.90
49829;DHT22;35723;51.194;5.112;2022-07-12T06:41:10;19.30;99.90
49829;DHT22;35723;51.194;5.112;2022-07-12T06:43:36;19.30;99.90
49829;DHT22;35723;51.194;5.112;2022-07-12T06:46:01;19.40;99.90
49829;DHT22;35723;51.194;5.112;2022-07-12T06:48:27;19.60;99.90
49829;DHT22;35723;51.194;5.112;2022-07-12T06:50:53;20.00;99.90
49829;DHT22;35723;51.194;5.112;2022-07-12T06:53:18;19.90;99.90
49829;DHT22;35723;51.194;5.112;2022-07-12T06:55:45;19.80;99.90
49829;DHT22;35723;51.194;5.112;2022-07-12T06:58:11;19.90;99.90
49829;DHT22;35723;51.194;5.112;2022-07-12T07:00:37;19.90;99.90
49829;DHT22;35723;51.194;5.112;2022-07-12T07:03:05;19.90;99.90
49829;DHT22;35723;51.194;5.112;2022-07-12T07:05:31;19.90;99.90
49829;DHT22;35723;51.194;5.112;2022-07-12T07:07:57;20.00;99.90
49829;DHT22;35723;51.194;5.112;2022-07-12T07:10:22;20.20;99.90
49829;DHT22;35723;51.194;5.112;2022-07-12T07:12:48;20.40;99.90
49829;DHT22;35723;51.194;5.112;2022-07-12T07:15:14;20.60;99.90
49829;DHT22;35723;51.194;5.112;2022-07-12T07:17:41;20.50;99.90
49829;DHT22;35723;51.194;5.112;2022-07-12T07:20:09;20.40;99.90
49829;DHT22;35723;51.194;5.112;2022-07-12T07:22:35;20.40;99.90
49829;DHT22;35723;51.194;5.112;2022-07-12T07:25:00;20.40;99.90
49829;DHT22;35723;51.194;5.112;2022-07-12T07:27:26;20.60;99.90
49829;DHT22;35723;51.194;5.112;2022-07-12T07:29:51;20.60;99.90
49829;DHT22;35723;51.194;5.112;2022-07-12T07:32:35;20.70;99.90
49829;DHT22;35723;51.194;5.112;2022-07-12T07:35:01;20.70;99.90
49829;DHT22;35723;51.194;5.112;2022-07-12T07:37:27;20.70;99.90
49829;DHT22;35723;51.194;5.112;2022-07-12T07:39:53;20.90;99.90
49829;DHT22;35723;51.194;5.112;2022-07-12T07:42:19;21.00;99.90
49829;DHT22;35723;51.194;5.112;2022-07-12T07:44:44;21.10;99.90
49829;DHT22;35723;51.194;5.112;2022-07-12T07:47:10;21.20;99.90
49829;DHT22;35723;51.194;5.112;2022-07-12T07:49:35;21.20;99.90
49829;DHT22;35723;51.194;5.112;2022-07-12T07:52:02;21.50;99.90
49829;DHT22;35723;51.194;5.112;2022-07-12T07:54:27;21.50;99.90
49829;DHT22;35723;51.194;5.112;2022-07-12T07:56:53;21.40;99.90
49829;DHT22;35723;51.194;5.112;2022-07-12T07:59:18;21.60;99.90
49829;DHT22;35723;51.194;5.112;2022-07-12T08:01:44;21.60;99.90
49829;DHT22;35723;51.194;5.112;2022-07-12T08:04:17;21.80;99.90
49829;DHT22;35723;51.194;5.112;2022-07-12T08:06:44;22.20;99.90
49829;DHT22;35723;51.194;5.112;2022-07-12T08:09:10;22.20;99.90
49829;DHT22;35723;51.194;5.112;2022-07-12T08:11:36;22.00;99.90
49829;DHT22;35723;51.194;5.112;2022-07-12T08:14:03;22.00;99.90
49829;DHT22;35723;51.194;5.112;2022-07-12T08:16:29;22.00;99.90
49829;DHT22;35723;51.194;5.112;2022-07-12T08:18:56;22.20;99.90
49829;DHT22;35723;51.194;5.112;2022-07-12T08:21:21;22.60;99.90
49829;DHT22;35723;51.194;5.112;2022-07-12T08:23:47;23.10;99.90
49829;DHT22;35723;51.194;5.112;2022-07-12T08:26:13;23.10;99.90
49829;DHT22;35723;51.194;5.112;2022-07-12T08:28:39;23.20;99.90
49829;DHT22;35723;51.194;5.112;2022-07-12T08:31:04;23.00;99.90
49829;DHT22;35723;51.194;5.112;2022-07-12T08:33:30;22.70;99.90
49829;DHT22;35723;51.194;5.112;2022-07-12T08:35:56;23.00;99.90
49829;DHT22;35723;51.194;5.112;2022-07-12T08:38:21;23.20;99.90
49829;DHT22;35723;51.194;5.112;2022-07-12T08:40:47;23.40;99.90
49829;DHT22;35723;51.194;5.112;2022-07-12T08:43:13;23.60;99.90
49829;DHT22;35723;51.194;5.112;2022-07-12T08:45:39;23.70;99.90
49829;DHT22;35723;51.194;5.112;2022-07-12T08:48:06;23.80;99.90
49829;DHT22;35723;51.194;5.112;2022-07-12T08:50:33;23.70;99.90
49829;DHT22;35723;51.194;5.112;2022-07-12T08:52:58;23.80;99.90
49829;DHT22;35723;51.194;5.112;2022-07-12T08:55:33;23.90;99.90
49829;DHT22;35723;51.194;5.112;2022-07-12T08:58:03;23.80;99.90
49829;DHT22;35723;51.194;5.112;2022-07-12T09:00:31;23.70;99.90
49829;DHT22;35723;51.194;5.112;2022-07-12T09:03:01;23.90;99.90
49829;DHT22;35723;51.194;5.112;2022-07-12T09:05:32;24.00;99.90
49829;DHT22;35723;51.194;5.112;2022-07-12T09:08:09;24.30;99.90
49829;DHT22;35723;51.194;5.112;2022-07-12T09:16:22;24.20;99.90
49829;DHT22;35723;51.194;5.112;2022-07-12T09:18:48;24.30;99.90
49829;DHT22;35723;51.194;5.112;2022-07-12T09:21:24;24.40;99.90
49829;DHT22;35723;51.194;5.112;2022-07-12T09:23:55;24.40;99.90
49829;DHT22;35723;51.194;5.112;2022-07-12T09:26:21;24.50;99.90
49829;DHT22;35723;51.194;5.112;2022-07-12T09:28:49;24.60;99.90
49829;DHT22;35723;51.194;5.112;2022-07-12T09:31:16;24.60;99.90
49829;DHT22;35723;51.194;5.112;2022-07-12T09:33:41;24.90;99.90
49829;DHT22;35723;51.194;5.112;2022-07-12T09:36:37;25.00;99.90
49829;DHT22;35723;51.194;5.112;2022-07-12T09:39:03;25.00;99.90
49829;DHT22;35723;51.194;5.112;2022-07-12T09:41:29;24.90;99.90
49829;DHT22;35723;51.194;5.112;2022-07-12T09:43:56;25.00;99.90
49829;DHT22;35723;51.194;5.112;2022-07-12T09:46:23;25.20;99.90
49829;DHT22;35723;51.194;5.112;2022-07-12T09:48:49;25.30;99.90
49829;DHT22;35723;51.194;5.112;2022-07-12T09:51:16;24.80;99.90
49829;DHT22;35723;51.194;5.112;2022-07-12T09:53:49;25.00;99.90
49829;DHT22;35723;51.194;5.112;2022-07-12T09:56:18;25.10;99.90
49829;DHT22;35723;51.194;5.112;2022-07-12T09:58:57;25.10;99.90
49829;DHT22;35723;51.194;5.112;2022-07-12T10:01:23;25.30;99.90
49829;DHT22;35723;51.194;5.112;2022-07-12T10:03:54;25.60;99.90
49829;DHT22;35723;51.194;5.112;2022-07-12T10:06:25;25.80;99.90
49829;DHT22;35723;51.194;5.112;2022-07-12T10:08:51;26.10;99.90
49829;DHT22;35723;51.194;5.112;2022-07-12T10:11:18;26.10;99.90
49829;DHT22;35723;51.194;5.112;2022-07-12T10:13:45;25.90;99.90
49829;DHT22;35723;51.194;5.112;2022-07-12T10:16:13;25.90;99.90
49829;DHT22;35723;51.194;5.112;2022-07-12T10:18:40;26.10;99.90
49829;DHT22;35723;51.194;5.112;2022-07-12T10:21:26;26.40;99.90
49829;DHT22;35723;51.194;5.112;2022-07-12T10:23:51;26.50;99.90
49829;DHT22;35723;51.194;5.112;2022-07-12T10:26:23;26.40;99.90
49829;DHT22;35723;51.194;5.112;2022-07-12T10:29:02;26.60;99.90
49829;DHT22;35723;51.194;5.112;2022-07-12T10:31:30;26.80;99.90
49829;DHT22;35723;51.194;5.112;2022-07-12T10:34:19;26.70;99.90
49829;DHT22;35723;51.194;5.112;2022-07-12T10:39:24;27.20;99.90
49829;DHT22;35723;51.194;5.112;2022-07-12T10:44:35;27.30;99.90
49829;DHT22;35723;51.194;5.112;2022-07-12T10:47:03;27.80;99.90
49829;DHT22;35723;51.194;5.112;2022-07-12T10:49:30;27.80;99.90
49829;DHT22;35723;51.194;5.112;2022-07-12T10:54:41;27.10;99.90
49829;DHT22;35723;51.194;5.112;2022-07-12T10:57:08;27.10;99.90
49829;DHT22;35723;51.194;5.112;2022-07-12T10:59:36;27.30;99.90
49829;DHT22;35723;51.194;5.112;2022-07-12T11:02:03;27.40;99.90
49829;DHT22;35723;51.194;5.112;2022-07-12T11:04:29;27.50;99.90
49829;DHT22;35723;51.194;5.112;2022-07-12T11:06:55;27.80;99.60
49829;DHT22;35723;51.194;5.112;2022-07-12T11:09:23;27.90;99.90
49829;DHT22;35723;51.194;5.112;2022-07-12T11:11:51;28.10;99.40
49829;DHT22;35723;51.194;5.112;2022-07-12T11:14:24;28.20;99.10
49829;DHT22;35723;51.194;5.112;2022-07-12T11:16:52;28.30;98.00
49829;DHT22;35723;51.194;5.112;2022-07-12T11:19:22;28.50;97.70
49829;DHT22;35723;51.194;5.112;2022-07-12T11:21:49;28.20;99.20
49829;DHT22;35723;51.194;5.112;2022-07-12T11:24:22;28.30;99.90
49829;DHT22;35723;51.194;5.112;2022-07-12T11:26:48;28.50;97.60
49829;DHT22;35723;51.194;5.112;2022-07-12T11:29:15;28.20;98.90
49829;DHT22;35723;51.194;5.112;2022-07-12T11:31:40;28.30;98.70
49829;DHT22;35723;51.194;5.112;2022-07-12T11:34:06;28.30;97.30
49829;DHT22;35723;51.194;5.112;2022-07-12T11:36:32;28.20;96.80
49829;DHT22;35723;51.194;5.112;2022-07-12T11:38:59;28.30;97.80
49829;DHT22;35723;51.194;5.112;2022-07-12T11:41:26;28.20;99.30
49829;DHT22;35723;51.194;5.112;2022-07-12T11:43:51;28.50;98.30
49829;DHT22;35723;51.194;5.112;2022-07-12T11:46:17;28.80;97.60
49829;DHT22;35723;51.194;5.112;2022-07-12T11:48:43;29.00;96.60
49829;DHT22;35723;51.194;5.112;2022-07-12T11:51:12;29.00;97.70
49829;DHT22;35723;51.194;5.112;2022-07-12T11:53:39;28.90;96.90
49829;DHT22;35723;51.194;5.112;2022-07-12T11:56:06;28.90;96.80
49829;DHT22;35723;51.194;5.112;2022-07-12T11:58:33;28.90;96.50
49829;DHT22;35723;51.194;5.112;2022-07-12T12:01:03;28.90;96.50
49829;DHT22;35723;51.194;5.112;2022-07-12T12:03:29;28.90;95.20
49829;DHT22;35723;51.194;5.112;2022-07-12T12:05:56;29.20;96.30
49829;DHT22;35723;51.194;5.112;2022-07-12T12:08:22;28.90;95.40
49829;DHT22;35723;51.194;5.112;2022-07-12T12:13:19;29.10;95.20
49829;DHT22;35723;51.194;5.112;2022-07-12T12:15:59;28.90;96.60
49829;DHT22;35723;51.194;5.112;2022-07-12T12:18:32;29.10;95.60
49829;DHT22;35723;51.194;5.112;2022-07-12T12:21:01;29.30;95.10
49829;DHT22;35723;51.194;5.112;2022-07-12T12:23:28;29.60;96.10
49829;DHT22;35723;51.194;5.112;2022-07-12T12:31:09;29.50;95.60
49829;DHT22;35723;51.194;5.112;2022-07-12T12:33:48;29.30;95.80
49829;DHT22;35723;51.194;5.112;2022-07-12T12:36:28;29.50;95.60
49829;DHT22;35723;51.194;5.112;2022-07-12T12:38:58;29.50;94.90
49829;DHT22;35723;51.194;5.112;2022-07-12T12:41:25;29.80;94.90
49829;DHT22;35723;51.194;5.112;2022-07-12T12:44:04;29.80;95.30
49829;DHT22;35723;51.194;5.112;2022-07-12T12:46:50;29.90;94.50
49829;DHT22;35723;51.194;5.112;2022-07-12T12:49:18;30.20;93.20
49829;DHT22;35723;51.194;5.112;2022-07-12T12:51:58;30.20;93.30
49829;DHT22;35723;51.194;5.112;2022-07-12T12:54:36;30.00;94.10
49829;DHT22;35723;51.194;5.112;2022-07-12T12:57:04;29.90;94.30
49829;DHT22;35723;51.194;5.112;2022-07-12T12:59:30;29.70;93.30
49829;DHT22;35723;51.194;5.112;2022-07-12T13:01:56;29.90;94.10
49829;DHT22;35723;51.194;5.112;2022-07-12T13:04:22;29.30;92.20
49829;DHT22;35723;51.194;5.112;2022-07-12T13:06:52;28.80;91.60
49829;DHT22;35723;51.194;5.112;2022-07-12T13:09:18;29.20;93.50
49829;DHT22;35723;51.194;5.112;2022-07-12T13:11:48;29.40;93.70
49829;DHT22;35723;51.194;5.112;2022-07-12T13:14:13;29.40;93.50
49829;DHT22;35723;51.194;5.112;2022-07-12T13:16:39;29.70;92.40
49829;DHT22;35723;51.194;5.112;2022-07-12T13:19:05;29.60;91.40
49829;DHT22;35723;51.194;5.112;2022-07-12T13:21:31;29.50;91.80
49829;DHT22;35723;51.194;5.112;2022-07-12T13:23:57;29.50;91.10
49829;DHT22;35723;51.194;5.112;2022-07-12T13:26:22;29.50;92.10
49829;DHT22;35723;51.194;5.112;2022-07-12T13:28:48;29.80;87.70
49829;DHT22;35723;51.194;5.112;2022-07-12T13:31:14;29.70;88.50
49829;DHT22;35723;51.194;5.112;2022-07-12T13:33:39;29.60;85.20
49829;DHT22;35723;51.194;5.112;2022-07-12T13:36:05;29.60;88.10
49829;DHT22;35723;51.194;5.112;2022-07-12T13:38:31;29.90;88.90
49829;DHT22;35723;51.194;5.112;2022-07-12T13:40:56;29.80;89.70
49829;DHT22;35723;51.194;5.112;2022-07-12T13:43:22;30.20;90.20
49829;DHT22;35723;51.194;5.112;2022-07-12T13:45:52;30.50;90.60
49829;DHT22;35723;51.194;5.112;2022-07-12T13:48:18;30.30;89.60
49829;DHT22;35723;51.194;5.112;2022-07-12T13:50:44;30.40;89.20
49829;DHT22;35723;51.194;5.112;2022-07-12T13:53:10;30.60;90.30
49829;DHT22;35723;51.194;5.112;2022-07-12T13:55:36;30.30;90.30
49829;DHT22;35723;51.194;5.112;2022-07-12T13:58:06;30.30;90.80
49829;DHT22;35723;51.194;5.112;2022-07-12T14:00:32;30.70;90.40
49829;DHT22;35723;51.194;5.112;2022-07-12T14:02:58;31.10;90.30
49829;DHT22;35723;51.194;5.112;2022-07-12T14:05:24;30.70;89.40
49829;DHT22;35723;51.194;5.112;2022-07-12T14:07:50;30.40;89.30
49829;DHT22;35723;51.194;5.112;2022-07-12T14:10:16;30.10;89.60
49829;DHT22;35723;51.194;5.112;2022-07-12T14:12:42;30.00;90.40
49829;DHT22;35723;51.194;5.112;2022-07-12T14:15:08;30.50;87.90
49829;DHT22;35723;51.194;5.112;2022-07-12T14:17:47;30.80;88.50
49829;DHT22;35723;51.194;5.112;2022-07-12T14:20:19;30.80;88.30
49829;DHT22;35723;51.194;5.112;2022-07-12T14:22:46;30.90;87.00
49829;DHT22;35723;51.194;5.112;2022-07-12T14:25:12;30.60;84.50
49829;DHT22;35723;51.194;5.112;2022-07-12T14:27:39;30.80;87.10
49829;DHT22;35723;51.194;5.112;2022-07-12T14:30:06;30.60;86.90
49829;DHT22;35723;51.194;5.112;2022-07-12T14:32:32;30.10;87.80
49829;DHT22;35723;51.194;5.112;2022-07-12T14:34:58;30.30;84.60
49829;DHT22;35723;51.194;5.112;2022-07-12T14:37:23;30.40;85.30
49829;DHT22;35723;51.194;5.112;2022-07-12T14:39:49;30.30;82.90
49829;DHT22;35723;51.194;5.112;2022-07-12T14:42:15;30.00;87.70
49829;DHT22;35723;51.194;5.112;2022-07-12T14:44:41;30.30;87.40
49829;DHT22;35723;51.194;5.112;2022-07-12T14:47:07;30.60;86.50
49829;DHT22;35723;51.194;5.112;2022-07-12T14:49:33;30.70;83.70
49829;DHT22;35723;51.194;5.112;2022-07-12T14:51:59;30.40;85.60
49829;DHT22;35723;51.194;5.112;2022-07-12T14:54:25;30.80;81.80
49829;DHT22;35723;51.194;5.112;2022-07-12T14:56:50;30.80;80.10
49829;DHT22;35723;51.194;5.112;2022-07-12T14:59:16;30.80;81.40
49829;DHT22;35723;51.194;5.112;2022-07-12T15:01:42;30.90;80.90
49829;DHT22;35723;51.194;5.112;2022-07-12T15:04:07;31.10;78.40
49829;DHT22;35723;51.194;5.112;2022-07-12T15:06:33;31.10;77.30
49829;DHT22;35723;51.194;5.112;2022-07-12T15:09:00;31.30;77.50
49829;DHT22;35723;51.194;5.112;2022-07-12T15:11:26;31.10;78.80
49829;DHT22;35723;51.194;5.112;2022-07-12T15:13:51;30.90;80.50
49829;DHT22;35723;51.194;5.112;2022-07-12T15:16:17;30.90;82.90
49829;DHT22;35723;51.194;5.112;2022-07-12T15:18:43;30.90;83.60
49829;DHT22;35723;51.194;5.112;2022-07-12T15:21:09;31.20;80.60
49829;DHT22;35723;51.194;5.112;2022-07-12T15:23:35;31.00;81.80
49829;DHT22;35723;51.194;5.112;2022-07-12T15:26:00;31.00;81.70
49829;DHT22;35723;51.194;5.112;2022-07-12T15:28:28;30.90;83.90
49829;DHT22;35723;51.194;5.112;2022-07-12T15:30:57;30.90;83.60
49829;DHT22;35723;51.194;5.112;2022-07-12T15:33:23;31.20;80.40
49829;DHT22;35723;51.194;5.112;2022-07-12T15:35:50;31.10;80.50
49829;DHT22;35723;51.194;5.112;2022-07-12T15:38:16;31.00;79.80
49829;DHT22;35723;51.194;5.112;2022-07-12T15:40:43;31.10;79.00
49829;DHT22;35723;51.194;5.112;2022-07-12T15:43:09;31.00;79.90
49829;DHT22;35723;51.194;5.112;2022-07-12T15:45:37;30.70;81.50
49829;DHT22;35723;51.194;5.112;2022-07-12T15:48:03;30.40;83.80
49829;DHT22;35723;51.194;5.112;2022-07-12T15:50:29;30.40;84.10